Time;durP1;ratioP1;P1;durP2;ratioP2;P2;SDS_P1;SDS_P2;PMS_P1;PMS_P2;Temp;Humidity;BMP_temperature;BMP_pressure;BME280_temperature;BME280_humidity;BME280_pressure;Samples;Min_cycle;Max_cycle;Signal;HPM_P1;HPM_P2
2024/01/12 00:01:14;;;;;;;66.60;29.83;;;;;;;0.27;92.01;102346.22;8293488;28;20045;-55
2024/01/12 00:04:34;;;;;;;67.72;27.95;;;;;;;0.26;92.89;102353.31;8309619;28;20044;-53
2024/01/12 00:08:37;;;;;;;67.13;29.15;;;;;;;0.30;94.30;102343.50;8327103;28;20120;-55
2024/01/12 00:12:37;;;;;;;70.05;31.75;;;;;;;0.26;94.53;102347.09;8369063;28;20416;-55
2024/01/12 00:16:38;;;;;;;69.03;29.77;;;;;;;0.26;94.74;102334.69;8355369;28;20040;-54
2024/01/12 00:20:42;;;;;;;74.65;30.80;;;;;;;0.25;95.68;102342.69;8312723;28;20119;-54
2024/01/12 00:24:43;;;;;;;81.82;31.42;;;;;;;0.29;96.19;102333.72;8314385;28;20129;-55
2024/01/12 00:28:43;;;;;;;71.72;31.65;;;;;;;0.31;97.48;102323.97;8311877;28;20124;-54
2024/01/12 00:32:44;;;;;;;71.70;30.08;;;;;;;0.36;98.07;102324.75;8320428;28;20555;-55
2024/01/12 00:36:46;;;;;;;71.80;32.28;;;;;;;0.35;99.10;102317.66;8314447;28;20141;-55
2024/01/12 00:40:46;;;;;;;71.50;29.70;;;;;;;0.38;100.00;102322.91;8314335;28;20102;-55
2024/01/12 00:44:47;;;;;;;71.30;32.10;;;;;;;0.38;100.00;102325.56;8314176;28;20044;-55
2024/01/12 00:48:50;;;;;;;71.93;31.02;;;;;;;0.33;100.00;102330.13;8312840;28;20123;-56
2024/01/12 00:52:50;;;;;;;68.95;30.17;;;;;;;0.39;100.00;102325.53;8320765;28;20115;-57
2024/01/12 00:56:51;;;;;;;72.88;31.20;;;;;;;0.41;100.00;102328.16;8314309;28;20370;-56
2024/01/12 01:00:51;;;;;;;77.05;32.70;;;;;;;0.38;100.00;102323.78;8287791;28;20368;-57
2024/01/12 01:04:51;;;;;;;74.45;34.22;;;;;;;0.40;100.00;102327.31;8315705;28;20041;-57
2024/01/12 01:08:52;;;;;;;77.28;32.33;;;;;;;0.37;100.00;102326.50;8311741;28;20122;-57
2024/01/12 01:12:53;;;;;;;71.43;32.65;;;;;;;0.39;100.00;102320.22;8316110;28;20909;-57
2024/01/12 01:16:53;;;;;;;75.30;31.08;;;;;;;0.40;100.00;102337.06;8315452;28;20513;-54
2024/01/12 01:20:54;;;;;;;73.38;33.22;;;;;;;0.43;100.00;102331.69;8324868;28;20037;-55
2024/01/12 01:24:54;;;;;;;74.28;32.83;;;;;;;0.42;100.00;102327.28;8342182;28;20688;-57
2024/01/12 01:28:55;;;;;;;76.25;32.83;;;;;;;0.42;100.00;102324.63;8314889;28;20067;-56
2024/01/12 01:32:56;;;;;;;73.22;31.63;;;;;;;0.43;100.00;102326.34;8324244;28;20047;-57
2024/01/12 01:37:01;;;;;;;71.72;32.10;;;;;;;0.42;100.00;102321.97;8322132;28;20052;-56
2024/01/12 01:41:02;;;;;;;73.55;32.30;;;;;;;0.47;100.00;102328.03;8311958;28;20041;-55
2024/01/12 01:45:03;;;;;;;78.85;34.10;;;;;;;0.45;100.00;102338.72;8314731;28;20386;-56
2024/01/12 01:49:03;;;;;;;86.05;34.40;;;;;;;0.46;100.00;102337.81;8311756;28;20606;-56
2024/01/12 01:53:04;;;;;;;78.80;33.50;;;;;;;0.48;100.00;102335.09;8336883;28;20411;-56
2024/01/12 01:57:05;;;;;;;75.25;32.65;;;;;;;0.50;100.00;102344.81;8367474;28;20400;-57
2024/01/12 02:01:06;;;;;;;81.43;34.50;;;;;;;0.47;100.00;102344.00;8367825;28;20071;-57
2024/01/12 02:05:08;;;;;;;74.85;32.55;;;;;;;0.49;100.00;102355.50;8332008;28;20097;-56
2024/01/12 02:09:10;;;;;;;76.88;33.67;;;;;;;0.47;100.00;102354.63;8303675;28;20108;-55
2024/01/12 02:13:10;;;;;;;75.05;32.00;;;;;;;0.52;100.00;102352.78;8308731;28;20091;-55
2024/01/12 02:17:11;;;;;;;74.35;32.30;;;;;;;0.49;100.00;102351.03;8314999;28;20326;-54
2024/01/12 02:21:11;;;;;;;72.43;32.72;;;;;;;0.50;100.00;102344.81;8308263;28;20062;-54
2024/01/12 02:25:14;;;;;;;74.22;34.08;;;;;;;0.52;100.00;102352.78;8312648;28;20498;-56
2024/01/12 02:29:14;;;;;;;72.60;32.53;;;;;;;0.53;100.00;102343.88;8313120;28;20083;-55
2024/01/12 02:33:15;;;;;;;74.72;33.45;;;;;;;0.56;100.00;102343.81;8354242;28;20496;-56
2024/01/12 02:37:15;;;;;;;80.00;34.63;;;;;;;0.51;100.00;102335.03;8366476;28;20496;-55
2024/01/12 02:41:16;;;;;;;80.93;35.08;;;;;;;0.51;100.00;102333.25;8368265;28;20045;-56
2024/01/12 02:45:17;;;;;;;82.93;34.95;;;;;;;0.56;100.00;102335.81;8368522;28;20029;-56
2024/01/12 02:49:17;;;;;;;77.25;34.42;;;;;;;0.54;100.00;102329.66;8370028;28;20037;-57
2024/01/12 02:53:18;;;;;;;89.22;37.45;;;;;;;0.53;100.00;102319.91;8338048;28;20687;-54
2024/01/12 02:57:18;;;;;;;89.55;36.63;;;;;;;0.52;100.00;102320.84;8313235;28;20120;-55
2024/01/12 03:01:19;;;;;;;78.07;34.40;;;;;;;0.54;100.00;102319.00;8325909;28;20539;-56
2024/01/12 03:05:19;;;;;;;83.03;35.03;;;;;;;0.53;100.00;102306.63;8327784;28;20423;-56
2024/01/12 03:09:21;;;;;;;84.18;36.10;;;;;;;0.53;100.00;102314.59;8317668;28;20314;-56
2024/01/12 03:13:22;;;;;;;94.15;35.78;;;;;;;0.52;100.00;102310.19;8316615;28;20025;-56
2024/01/12 03:17:22;;;;;;;79.07;36.22;;;;;;;0.48;100.00;102312.03;8321364;28;20051;-57
2024/01/12 03:21:23;;;;;;;85.88;37.75;;;;;;;0.49;100.00;102300.47;8316319;28;20245;-56
2024/01/12 03:25:23;;;;;;;90.70;36.53;;;;;;;0.50;100.00;102306.69;8320847;28;20047;-55
2024/01/12 03:29:24;;;;;;;80.32;35.20;;;;;;;0.47;100.00;102301.44;8319755;28;20258;-55
2024/01/12 03:33:24;;;;;;;88.43;35.40;;;;;;;0.51;100.00;102297.78;8369774;28;20028;-56
2024/01/12 03:37:25;;;;;;;81.85;33.47;;;;;;;0.53;100.00;102296.84;8326491;28;20428;-56
2024/01/12 03:41:28;;;;;;;73.07;33.22;;;;;;;0.56;100.00;102290.59;8319490;28;20122;-55
2024/01/12 03:45:28;;;;;;;75.72;33.10;;;;;;;0.61;100.00;102288.72;8331294;28;20345;-56
2024/01/12 03:49:29;;;;;;;73.82;31.55;;;;;;;0.58;100.00;102302.09;8318655;28;20196;-56
2024/01/12 03:53:29;;;;;;;83.32;34.50;;;;;;;0.59;100.00;102295.84;8318509;28;20237;-53
2024/01/12 03:57:30;;;;;;;94.30;35.28;;;;;;;0.62;100.00;102303.75;8320203;28;20036;-56
2024/01/12 04:01:30;;;;;;;87.38;35.65;;;;;;;0.57;100.00;102295.00;8316682;28;20245;-56
2024/01/12 04:05:31;;;;;;;81.43;33.58;;;;;;;0.61;100.00;102294.03;8316607;28;20037;-56
2024/01/12 04:09:31;;;;;;;81.32;33.60;;;;;;;0.56;100.00;102290.59;8317388;28;20340;-56
2024/01/12 04:13:32;;;;;;;82.68;35.38;;;;;;;0.55;100.00;102292.38;8359587;28;20048;-55
2024/01/12 04:17:32;;;;;;;79.82;32.72;;;;;;;0.61;100.00;102291.38;8376967;28;20051;-55
2024/01/12 04:21:33;;;;;;;88.97;33.35;;;;;;;0.64;100.00;102294.81;8370742;28;20140;-55
2024/01/12 04:25:33;;;;;;;79.10;32.40;;;;;;;0.66;100.00;102294.78;8376201;28;20182;-54
2024/01/12 04:29:35;;;;;;;81.97;34.95;;;;;;;0.65;100.00;102295.69;8371735;28;20079;-56
2024/01/12 04:33:35;;;;;;;76.15;32.72;;;;;;;0.66;100.00;102298.31;8324966;28;20036;-56
2024/01/12 04:37:36;;;;;;;85.63;33.03;;;;;;;0.68;100.00;102303.63;8317207;28;20059;-57
2024/01/12 04:41:36;;;;;;;77.43;35.30;;;;;;;0.70;100.00;102294.69;8316972;28;20141;-57
2024/01/12 04:45:37;;;;;;;96.70;35.75;;;;;;;0.69;100.00;102279.63;8319684;28;20205;-56
2024/01/12 04:49:38;;;;;;;79.30;33.08;;;;;;;0.68;100.00;102279.66;8317433;28;20052;-56
2024/01/12 04:53:39;;;;;;;88.75;36.78;;;;;;;0.74;100.00;102280.41;8317167;28;20057;-56
2024/01/12 04:57:40;;;;;;;80.88;34.67;;;;;;;0.68;100.00;102282.31;8356170;28;20636;-57
2024/01/12 05:01:40;;;;;;;82.13;34.63;;;;;;;0.69;100.00;102276.09;8305986;28;20043;-56
2024/01/12 05:05:41;;;;;;;95.28;36.35;;;;;;;0.74;100.00;102290.16;8322729;28;20409;-56
2024/01/12 05:09:41;;;;;;;83.90;35.30;;;;;;;0.72;100.00;102276.00;8314889;28;20045;-56
2024/01/12 05:13:41;;;;;;;87.07;37.13;;;;;;;0.79;100.00;102282.97;8315214;28;20052;-56
2024/01/12 05:17:42;;;;;;;96.10;36.45;;;;;;;0.76;100.00;102272.38;8346922;28;20217;-56
2024/01/12 05:21:42;;;;;;;92.93;34.53;;;;;;;0.81;100.00;102265.16;8313953;28;20064;-57
2024/01/12 05:25:43;;;;;;;96.50;38.22;;;;;;;0.77;100.00;102269.69;8313464;28;20064;-54
2024/01/12 05:29:44;;;;;;;96.88;39.90;;;;;;;0.84;100.00;102275.72;8315637;28;20271;-59
2024/01/12 05:33:44;;;;;;;101.05;39.42;;;;;;;0.86;100.00;102284.56;8324141;28;20229;-55
2024/01/12 05:37:45;;;;;;;106.95;41.13;;;;;;;0.85;100.00;102285.47;8313339;28;20041;-54
2024/01/12 05:41:45;;;;;;;97.75;39.90;;;;;;;0.84;100.00;102275.72;8312507;28;20041;-55
2024/01/12 05:45:46;;;;;;;107.95;42.25;;;;;;;0.87;100.00;102265.00;8349831;28;20041;-53
2024/01/12 05:49:46;;;;;;;121.90;47.40;;;;;;;0.87;100.00;102263.22;8370950;28;20124;-54
2024/01/12 05:53:47;;;;;;;111.78;44.85;;;;;;;0.92;100.00;102263.13;8353705;28;20140;-54
2024/01/12 05:57:47;;;;;;;114.25;42.40;;;;;;;0.89;100.00;102264.06;8365525;28;20094;-55
2024/01/12 06:01:50;;;;;;;123.40;48.85;;;;;;;0.89;100.00;102279.16;8376330;28;20033;-56
2024/01/12 06:05:51;;;;;;;111.00;44.83;;;;;;;0.86;100.00;102279.25;8376159;28;20685;-56
2024/01/12 06:09:53;;;;;;;120.18;42.25;;;;;;;0.86;100.00;102292.53;8383445;28;20492;-57
2024/01/12 06:13:54;;;;;;;110.85;42.25;;;;;;;0.82;100.00;102293.53;8373437;28;20477;-55
2024/01/12 06:17:54;;;;;;;108.95;45.40;;;;;;;0.83;100.00;102300.59;8367258;28;20411;-55
2024/01/12 06:21:54;;;;;;;109.50;44.03;;;;;;;0.79;100.00;102299.78;8373300;28;20090;-57
2024/01/12 06:25:55;;;;;;;122.22;45.00;;;;;;;0.84;100.00;102302.34;8370688;28;20033;-56
2024/01/12 06:29:55;;;;;;;125.95;45.88;;;;;;;0.84;100.00;102303.22;8367682;28;20036;-57
2024/01/12 06:33:56;;;;;;;109.90;45.17;;;;;;;0.85;100.00;102314.78;8367446;28;20454;-56
2024/01/12 06:37:57;;;;;;;119.32;45.63;;;;;;;0.84;100.00;102311.22;8398119;28;20044;-57
2024/01/12 06:41:58;;;;;;;109.45;45.22;;;;;;;0.85;100.00;102309.44;8399026;28;20333;-57
2024/01/12 06:45:59;;;;;;;123.95;46.35;;;;;;;0.94;100.00;102310.09;8370433;28;20123;-54
2024/01/12 06:50:00;;;;;;;120.43;47.42;;;;;;;0.95;100.00;102311.81;8377666;28;20029;-56
2024/01/12 06:54:01;;;;;;;119.43;45.22;;;;;;;0.95;100.00;102305.66;8377254;28;20447;-55
2024/01/12 06:58:03;;;;;;;130.82;49.03;;;;;;;0.94;100.00;102314.53;8367334;28;20040;-55
2024/01/12 07:02:04;;;;;;;119.50;47.58;;;;;;;0.94;100.00;102317.19;8370037;28;20055;-57
2024/01/12 07:06:04;;;;;;;131.82;47.10;;;;;;;0.94;100.00;102315.41;8376564;28;20041;-55
2024/01/12 07:10:05;;;;;;;134.93;47.60;;;;;;;0.94;100.00;102314.53;8380297;28;20442;-56
2024/01/12 07:14:08;;;;;;;129.05;48.70;;;;;;;1.00;100.00;102314.38;8367473;28;20048;-57
2024/01/12 07:18:08;;;;;;;136.15;48.75;;;;;;;1.02;100.00;102307.25;8366730;28;20236;-55
2024/01/12 07:22:09;;;;;;;137.32;49.67;;;;;;;1.00;100.00;102309.06;8367353;28;20056;-55
2024/01/12 07:26:09;;;;;;;135.85;49.30;;;;;;;1.03;100.00;102304.53;8372685;28;20497;-58
2024/01/12 07:30:10;;;;;;;134.43;50.15;;;;;;;1.02;100.00;102299.25;8373974;28;20058;-58
2024/01/12 07:34:10;;;;;;;121.18;47.05;;;;;;;1.07;100.00;102290.22;8375884;28;20048;-57
2024/01/12 07:38:12;;;;;;;129.68;51.10;;;;;;;1.03;100.00;102285.00;8375020;28;20036;-55
2024/01/12 07:42:12;;;;;;;138.70;50.33;;;;;;;1.04;100.00;102284.13;8360765;28;20037;-54
2024/01/12 07:46:17;;;;;;;140.13;49.60;;;;;;;1.11;100.00;102291.94;8357447;28;20033;-54
2024/01/12 07:50:18;;;;;;;128.10;50.67;;;;;;;1.12;100.00;102290.13;8355018;28;20475;-56
2024/01/12 07:54:18;;;;;;;144.02;49.30;;;;;;;1.15;100.00;102292.69;8360132;28;20076;-56
2024/01/12 07:58:20;;;;;;;140.40;51.03;;;;;;;1.18;100.00;102295.28;8359586;28;20448;-56
2024/01/12 08:02:20;;;;;;;137.95;50.88;;;;;;;1.19;100.00;102294.41;8357347;28;20033;-56
2024/01/12 08:06:20;;;;;;;147.23;51.65;;;;;;;1.25;100.00;102300.44;8355408;28;20041;-56
2024/01/12 08:10:23;;;;;;;150.90;52.53;;;;;;;1.24;100.00;102313.78;8339160;28;20047;-57
2024/01/12 08:14:24;;;;;;;150.73;55.33;;;;;;;1.22;100.00;102318.31;8337196;28;20038;-56
2024/01/12 08:18:24;;;;;;;151.73;54.53;;;;;;;1.24;100.00;102314.66;8334953;28;20053;-60
2024/01/12 08:22:25;;;;;;;155.20;53.25;;;;;;;1.23;100.00;102312.03;8337985;28;20045;-55
2024/01/12 08:26:25;;;;;;;153.70;52.05;;;;;;;1.23;100.00;102314.72;8337878;28;20042;-55
2024/01/12 08:30:25;;;;;;;146.65;50.30;;;;;;;1.26;100.00;102319.97;8340328;28;20433;-55
2024/01/12 08:34:26;;;;;;;151.85;52.33;;;;;;;1.22;100.00;102321.81;8336479;28;20454;-55
2024/01/12 08:38:26;;;;;;;152.10;51.80;;;;;;;1.17;100.00;102313.09;8340245;28;20040;-55
2024/01/12 08:42:27;;;;;;;168.13;52.30;;;;;;;1.20;100.00;102312.13;8337357;28;20048;-56
2024/01/12 08:46:27;;;;;;;169.55;52.75;;;;;;;1.22;100.00;102312.97;8339138;28;20056;-57
2024/01/12 08:50:30;;;;;;;168.02;53.55;;;;;;;1.29;100.00;102311.91;8338981;28;20041;-55
2024/01/12 08:54:30;;;;;;;173.60;52.03;;;;;;;1.26;100.00;102303.97;8341399;28;20540;-55
2024/01/12 08:58:31;;;;;;;180.80;52.35;;;;;;;1.34;100.00;102310.00;8337026;28;20408;-56
2024/01/12 09:02:31;;;;;;;184.68;52.92;;;;;;;1.37;100.00;102313.44;8337317;28;20107;-56
2024/01/12 09:06:32;;;;;;;179.60;52.42;;;;;;;1.41;100.00;102314.25;8339233;28;20048;-55
2024/01/12 09:10:32;;;;;;;179.77;49.00;;;;;;;1.41;100.00;102319.59;8337062;28;20073;-56
2024/01/12 09:14:32;;;;;;;180.10;51.33;;;;;;;1.42;100.00;102311.56;8336881;28;20123;-57
2024/01/12 09:18:33;;;;;;;190.02;53.58;;;;;;;1.43;100.00;102320.41;8336013;28;20048;-55
2024/01/12 09:22:33;;;;;;;184.88;50.38;;;;;;;1.41;100.00;102328.44;8336174;28;20064;-58
2024/01/12 09:26:35;;;;;;;169.75;49.88;;;;;;;1.41;100.00;102332.91;8338867;28;20421;-57
2024/01/12 09:30:35;;;;;;;184.40;49.50;;;;;;;1.50;100.00;102348.66;8337117;28;20037;-57
2024/01/12 09:34:36;;;;;;;169.45;47.90;;;;;;;1.49;100.00;102336.22;8337126;28;20555;-57
2024/01/12 09:38:36;;;;;;;181.40;48.88;;;;;;;1.47;100.00;102346.06;8339594;28;20046;-57
2024/01/12 09:42:42;;;;;;;182.40;49.67;;;;;;;1.48;100.00;102348.69;8335531;28;20044;-56
2024/01/12 09:46:55;;;;;;;161.75;46.67;;;;;;;1.48;100.00;102347.81;8337792;28;20041;-57
2024/01/12 09:50:56;;;;;;;171.23;47.78;;;;;;;1.49;100.00;102342.44;8336426;28;20033;-56
2024/01/12 09:54:57;;;;;;;168.48;47.83;;;;;;;1.57;100.00;102328.94;8336802;28;20564;-56
2024/01/12 09:58:59;;;;;;;153.50;48.92;;;;;;;1.67;100.00;102322.44;8336087;28;20874;-57
2024/01/12 10:03:01;;;;;;;178.75;45.95;;;;;;;1.64;100.00;102325.19;8334737;28;20033;-60
2024/01/12 10:07:03;;;;;;;156.73;46.13;;;;;;;1.70;100.00;102330.34;8334391;28;20361;-55
2024/01/12 10:11:03;;;;;;;156.25;45.75;;;;;;;1.69;100.00;102331.28;8337691;28;20042;-55
2024/01/12 10:15:09;;;;;;;172.18;49.15;;;;;;;1.65;100.00;102348.28;8343725;28;20075;-56
2024/01/12 10:19:11;;;;;;;160.95;50.05;;;;;;;1.68;100.00;102353.53;8341995;28;20033;-56
2024/01/12 10:23:18;;;;;;;153.77;46.17;;;;;;;1.68;100.00;102353.53;8341986;28;20501;-56
2024/01/12 10:27:19;;;;;;;168.32;46.20;;;;;;;1.73;100.00;102351.59;8341598;28;20029;-55
2024/01/12 10:31:20;;;;;;;171.98;46.78;;;;;;;1.76;100.00;102339.06;8344128;28;20036;-56
2024/01/12 10:35:20;;;;;;;164.35;46.75;;;;;;;1.81;100.00;102339.84;8342905;28;20397;-56
2024/01/12 10:39:22;;;;;;;150.38;44.17;;;;;;;1.77;100.00;102346.13;8341779;28;20034;-56
2024/01/12 10:43:24;;;;;;;159.05;43.83;;;;;;;1.79;100.00;102336.31;8341151;28;20083;-56
2024/01/12 10:47:32;;;;;;;130.82;40.15;;;;;;;1.78;100.00;102329.25;8343174;28;20501;-55
2024/01/12 10:51:38;;;;;;;134.60;38.33;;;;;;;1.85;100.00;102324.59;8341407;28;20040;-56
2024/01/12 10:55:49;;;;;;;115.05;37.55;;;;;;;1.94;100.00;102319.03;8342682;28;20041;-55
2024/01/12 10:59:51;;;;;;;113.30;35.05;;;;;;;1.94;100.00;102303.91;8341908;28;20060;-59
2024/01/12 11:03:51;;;;;;;106.25;35.58;;;;;;;1.96;100.00;102301.19;8341352;28;20045;-60
2024/01/12 11:07:56;;;;;;;107.90;35.60;;;;;;;1.96;100.00;102301.19;8342954;28;20132;-55
2024/01/12 11:12:04;;;;;;;100.78;34.15;;;;;;;2.01;100.00;102294.81;8343287;28;20112;-58
2024/01/12 11:16:05;;;;;;;91.13;30.45;;;;;;;2.00;100.00;102292.19;8340094;28;20037;-55
2024/01/12 11:20:10;;;;;;;84.40;26.92;;;;;;;2.01;100.00;102278.81;8341471;28;20037;-56
2024/01/12 11:24:11;;;;;;;81.90;27.38;;;;;;;2.08;100.00;102284.84;8339709;28;20084;-56
2024/01/12 11:28:14;;;;;;;79.18;26.23;;;;;;;2.08;100.00;102291.97;8372530;28;20497;-57
2024/01/12 11:32:15;;;;;;;77.95;24.70;;;;;;;2.08;100.00;102285.72;8342487;28;20044;-55
2024/01/12 11:36:17;;;;;;;80.88;24.98;;;;;;;2.10;100.00;102288.34;8342183;28;20041;-57
2024/01/12 11:40:17;;;;;;;77.15;23.90;;;;;;;2.13;100.00;102288.25;8340184;28;20040;-55
2024/01/12 11:44:18;;;;;;;78.70;23.45;;;;;;;2.06;100.00;102278.69;8339415;28;20103;-57
2024/01/12 11:48:18;;;;;;;69.97;23.55;;;;;;;2.07;100.00;102277.75;8336664;28;20393;-55
2024/01/12 11:52:19;;;;;;;73.32;24.95;;;;;;;2.05;100.00;102271.59;8325079;28;20030;-56
2024/01/12 11:56:20;;;;;;;78.07;25.45;;;;;;;2.10;100.00;102283.00;8353648;28;20040;-56
2024/01/12 12:00:23;;;;;;;79.18;24.85;;;;;;;1.94;100.00;102239.03;8342856;28;20497;-55
2024/01/12 12:04:23;;;;;;;65.32;23.67;;;;;;;2.07;100.00;102269.75;8342275;28;20041;-55
2024/01/12 12:08:27;;;;;;;69.55;22.38;;;;;;;2.07;100.00;102277.75;8348147;28;20045;-55
2024/01/12 12:12:29;;;;;;;66.97;21.75;;;;;;;2.06;100.00;102265.34;8342971;28;20041;-55
2024/01/12 12:16:30;;;;;;;72.90;23.70;;;;;;;2.08;100.00;102259.97;8347031;28;20090;-54
2024/01/12 12:20:30;;;;;;;71.32;23.52;;;;;;;2.09;100.00;102254.59;8344581;28;20034;-55
2024/01/12 12:24:32;;;;;;;74.95;25.38;;;;;;;2.09;100.00;102238.56;8338319;28;20041;-55
2024/01/12 12:28:32;;;;;;;65.90;22.02;;;;;;;2.10;100.00;102240.31;8345154;28;20037;-55
2024/01/12 12:32:33;;;;;;;67.13;20.75;;;;;;;2.09;100.00;102238.56;8335917;28;20064;-56
2024/01/12 12:36:34;;;;;;;64.90;20.40;;;;;;;2.09;100.00;102227.91;8351124;28;20075;-56
2024/01/12 12:40:34;;;;;;;76.78;24.33;;;;;;;2.13;100.00;102226.88;8341313;28;20037;-53
2024/01/12 12:44:35;;;;;;;65.85;21.33;;;;;;;2.14;100.00;102225.09;8346895;28;20048;-55
2024/01/12 12:48:39;;;;;;;67.88;22.60;;;;;;;2.11;100.00;102206.53;8349032;28;20360;-57
2024/01/12 12:52:42;;;;;;;64.55;21.63;;;;;;;2.10;100.00;102197.63;8354394;28;20039;-54
2024/01/12 12:56:42;;;;;;;74.07;22.88;;;;;;;2.12;100.00;102190.47;8345937;28;20776;-55
2024/01/12 13:00:43;;;;;;;77.15;22.50;;;;;;;2.15;100.00;102190.38;8351256;28;20041;-54
2024/01/12 13:04:43;;;;;;;72.70;22.55;;;;;;;2.15;100.00;102195.72;8354393;28;20041;-54
2024/01/12 13:08:44;;;;;;;70.93;22.73;;;;;;;2.20;100.00;102195.56;8353848;28;20099;-55
2024/01/12 13:12:48;;;;;;;68.10;22.00;;;;;;;2.16;100.00;102176.09;8356353;28;20106;-54
2024/01/12 13:16:49;;;;;;;;;;;;;;;2.20;100.00;102175.13;8330803;28;20032;-55
2024/01/12 13:21:10;;;;;;;67.93;23.25;;;;;;;2.14;100.00;102161.97;8333846;28;19928;-54
2024/01/12 13:25:11;;;;;;;74.28;22.42;;;;;;;2.14;100.00;102164.63;8282589;28;20054;-55
2024/01/12 13:29:12;;;;;;;76.18;23.27;;;;;;;2.15;100.00;102160.16;8313831;28;20041;-56
2024/01/12 13:33:12;;;;;;;74.72;24.05;;;;;;;2.17;100.00;102151.19;8365060;28;20315;-54
2024/01/12 13:37:13;;;;;;;76.00;23.95;;;;;;;2.13;100.00;102138.84;8364352;28;20122;-55
2024/01/12 13:41:15;;;;;;;78.20;25.20;;;;;;;2.19;100.00;102138.66;8368229;28;20041;-59
2024/01/12 13:45:16;;;;;;;89.28;24.83;;;;;;;2.22;100.00;102127.06;8371597;28;20064;-54
2024/01/12 13:49:16;;;;;;;89.95;26.35;;;;;;;2.23;100.00;102127.00;8371222;28;20063;-54
2024/01/12 13:53:18;;;;;;;91.38;26.30;;;;;;;2.25;100.00;102133.13;8372054;28;20440;-57
2024/01/12 13:57:19;;;;;;;88.53;27.80;;;;;;;2.23;100.00;102127.00;8375820;28;20112;-54
2024/01/12 14:01:19;;;;;;;98.13;30.50;;;;;;;2.24;100.00;102126.06;8369053;28;20063;-54
2024/01/12 14:05:20;;;;;;;96.80;27.02;;;;;;;2.25;100.00;102127.81;8374268;28;20036;-53
2024/01/12 14:09:20;;;;;;;91.00;27.20;;;;;;;2.24;100.00;102128.75;8372061;28;20032;-53
2024/01/12 14:13:21;;;;;;;91.00;26.73;;;;;;;2.28;100.00;102127.69;8373163;28;20123;-54
2024/01/12 14:17:21;;;;;;;95.53;28.05;;;;;;;2.29;100.00;102124.13;8373406;28;20115;-54
2024/01/12 14:21:22;;;;;;;110.05;38.40;;;;;;;2.30;100.00;102146.34;8369115;28;20488;-56
2024/01/12 14:25:22;;;;;;;98.97;27.63;;;;;;;2.24;100.00;102144.75;8373585;28;20037;-54
2024/01/12 14:29:23;;;;;;;85.28;28.90;;;;;;;2.24;100.00;102147.41;8373367;28;20048;-54
2024/01/12 14:33:23;;;;;;;88.68;25.77;;;;;;;2.27;100.00;102141.97;8371533;28;20036;-54
2024/01/12 14:37:24;;;;;;;93.57;31.35;;;;;;;2.29;100.00;102134.81;8371182;28;20051;-54
2024/01/12 14:41:24;;;;;;;112.68;38.45;;;;;;;2.31;100.00;102143.63;8373298;28;20451;-57
2024/01/12 14:45:25;;;;;;;90.63;27.77;;;;;;;2.32;100.00;102142.72;8371529;28;20041;-54
2024/01/12 14:49:25;;;;;;;96.10;29.23;;;;;;;2.34;100.00;102138.19;8373672;28;20106;-53
2024/01/12 14:53:26;;;;;;;89.43;31.40;;;;;;;2.32;100.00;102139.16;8370571;28;20170;-53
2024/01/12 14:57:26;;;;;;;96.90;32.60;;;;;;;2.35;100.00;102137.25;8371086;28;20050;-54
2024/01/12 15:01:30;;;;;;;86.15;27.98;;;;;;;2.30;100.00;102141.00;8376137;28;20175;-55
2024/01/12 15:05:33;;;;;;;98.10;30.87;;;;;;;2.33;100.00;102144.47;8379526;28;20029;-57
2024/01/12 15:09:34;;;;;;;95.07;29.63;;;;;;;2.38;100.00;102150.50;8377108;28;20511;-55
2024/01/12 15:13:38;;;;;;;92.75;28.55;;;;;;;2.35;100.00;102150.59;8377917;28;20040;-61
2024/01/12 15:17:41;;;;;;;85.07;26.67;;;;;;;2.36;100.00;102141.69;8374185;28;20579;-57
2024/01/12 15:21:41;;;;;;;113.75;36.20;;;;;;;2.34;100.00;102134.63;8388922;28;20044;-57
2024/01/12 15:25:42;;;;;;;98.18;29.67;;;;;;;2.35;100.00;102137.25;8395841;28;20037;-56
2024/01/12 15:29:42;;;;;;;99.97;30.60;;;;;;;2.37;100.00;102132.75;8387862;28;20049;-56
2024/01/12 15:33:44;;;;;;;94.50;30.45;;;;;;;2.32;100.00;102132.03;8383697;28;20044;-56
2024/01/12 15:37:44;;;;;;;94.65;29.48;;;;;;;2.30;100.00;102136.53;8387398;28;20123;-56
2024/01/12 15:41:45;;;;;;;92.68;29.58;;;;;;;2.29;100.00;102129.47;8409174;28;20044;-57
2024/01/12 15:45:45;;;;;;;103.28;28.23;;;;;;;2.29;100.00;102126.81;8374235;28;20033;-57
2024/01/12 15:49:45;;;;;;;100.95;29.80;;;;;;;2.28;100.00;102126.84;8369045;28;20449;-58
2024/01/12 15:53:46;;;;;;;111.13;30.33;;;;;;;2.27;100.00;102122.41;8375933;28;20531;-58
2024/01/12 15:57:46;;;;;;;92.68;28.27;;;;;;;2.26;100.00;102124.25;8373652;28;20067;-56
2024/01/12 16:01:47;;;;;;;102.22;28.67;;;;;;;2.26;100.00;102124.25;8372247;28;20044;-56
2024/01/12 16:05:47;;;;;;;95.18;28.63;;;;;;;2.24;100.00;102115.41;8374417;28;20252;-56
2024/01/12 16:09:48;;;;;;;109.25;28.85;;;;;;;2.18;100.00;102120.94;8374381;28;20033;-56
2024/01/12 16:13:48;;;;;;;109.53;29.77;;;;;;;2.21;100.00;102118.16;8376157;28;20136;-56
2024/01/12 16:17:49;;;;;;;104.40;29.88;;;;;;;2.21;100.00;102131.50;8375393;28;20569;-56
2024/01/12 16:21:54;;;;;;;93.13;28.98;;;;;;;2.24;100.00;102126.06;8388681;28;20044;-55
2024/01/12 16:25:55;;;;;;;112.35;30.05;;;;;;;2.20;100.00;102128.88;8384497;28;20036;-57
2024/01/12 16:29:55;;;;;;;117.10;33.33;;;;;;;2.22;100.00;102127.91;8389165;28;20036;-57
2024/01/12 16:33:56;;;;;;;104.97;31.52;;;;;;;2.27;100.00;102120.63;8387503;28;20041;-57
2024/01/12 16:37:56;;;;;;;121.78;33.20;;;;;;;2.36;100.00;102131.00;8378283;28;20044;-55
2024/01/12 16:41:57;;;;;;;115.57;36.38;;;;;;;2.37;100.00;102138.09;8373027;28;20063;-54
2024/01/12 16:45:57;;;;;;;102.63;32.17;;;;;;;2.34;100.00;102132.84;8371984;28;20067;-55
2024/01/12 16:49:57;;;;;;;108.53;32.10;;;;;;;2.40;100.00;102132.66;8381323;28;20036;-56
2024/01/12 16:53:58;;;;;;;123.70;30.80;;;;;;;2.43;100.00;102129.88;8387733;28;20036;-57
2024/01/12 16:57:58;;;;;;;112.82;31.20;;;;;;;2.47;100.00;102134.19;8380406;28;20071;-57
2024/01/12 17:02:00;;;;;;;110.32;33.83;;;;;;;2.46;100.00;102120.88;8377281;28;20045;-56
2024/01/12 17:06:00;;;;;;;118.35;35.90;;;;;;;2.42;100.00;102124.59;8380201;28;20032;-58
2024/01/12 17:10:01;;;;;;;128.85;36.45;;;;;;;2.45;100.00;102113.81;8388276;28;20029;-56
2024/01/12 17:14:01;;;;;;;127.57;34.53;;;;;;;2.47;100.00;102112.00;8381900;28;20451;-57
2024/01/12 17:18:03;;;;;;;109.57;36.08;;;;;;;2.50;100.00;102118.06;8386514;28;20028;-57
2024/01/12 17:22:03;;;;;;;109.80;33.20;;;;;;;2.51;100.00;102102.94;8374313;28;20493;-57
2024/01/12 17:26:09;;;;;;;118.63;36.00;;;;;;;2.47;100.00;102120.00;8386498;28;20131;-57
2024/01/12 17:30:10;;;;;;;124.70;34.33;;;;;;;2.46;100.00;102116.44;8385722;28;20040;-57
2024/01/12 17:34:10;;;;;;;120.75;36.08;;;;;;;2.48;100.00;102114.59;8386043;28;20044;-56
2024/01/12 17:38:11;;;;;;;140.18;35.55;;;;;;;2.49;100.00;102111.00;8386858;28;20040;-58
2024/01/12 17:42:12;;;;;;;126.85;36.28;;;;;;;2.52;100.00;102110.91;8385753;28;20040;-57
2024/01/12 17:46:13;;;;;;;125.82;36.40;;;;;;;2.51;100.00;102108.28;8379164;28;20032;-57
2024/01/12 17:50:13;;;;;;;135.35;38.75;;;;;;;2.52;100.00;102105.56;8385486;28;20044;-56
2024/01/12 17:54:13;;;;;;;137.98;40.90;;;;;;;2.52;100.00;102102.00;8383270;28;20036;-56
2024/01/12 17:58:15;;;;;;;144.82;40.38;;;;;;;2.52;100.00;102100.22;8382720;28;20574;-58
2024/01/12 18:02:18;;;;;;;137.45;39.20;;;;;;;2.54;100.00;102097.50;8381556;28;20449;-58
2024/01/12 18:06:18;;;;;;;128.10;39.10;;;;;;;2.53;100.00;102088.59;8383430;28;20060;-58
2024/01/12 18:10:19;;;;;;;127.47;37.08;;;;;;;2.55;100.00;102094.78;8380301;28;20056;-58